Time;durP1;ratioP1;P1;durP2;ratioP2;P2;SDS_P1;SDS_P2;PMS_P1;PMS_P2;Temp;Humidity;BMP_temperature;BMP_pressure;BME280_temperature;BME280_humidity;BME280_pressure;Samples;Min_cycle;Max_cycle;Signal;HPM_P1;HPM_P2
2023/06/04 00:00:54;;;;;;;8.07;3.30;;;;;;;;;;5040131;28;20040;-79
2023/06/04 00:03:20;;;;;;;6.72;3.15;;;;;;;;;;5060873;28;20292;-79
2023/06/04 00:05:45;;;;;;;6.40;3.17;;;;;;;;;;5062265;28;20059;-74
2023/06/04 00:08:10;;;;;;;6.78;3.47;;;;;;;;;;5057217;28;20029;-74
2023/06/04 00:10:36;;;;;;;11.52;3.42;;;;;;;;;;5057002;28;20028;-74
2023/06/04 00:13:01;;;;;;;10.53;5.30;;;;;;;;;;5057612;28;20033;-74
2023/06/04 00:15:26;;;;;;;12.80;6.47;;;;;;;;;;5058495;28;20636;-74
2023/06/04 00:17:51;;;;;;;15.37;6.77;;;;;;;;;;5056854;28;20028;-74
2023/06/04 00:20:17;;;;;;;15.20;6.47;;;;;;;;;;5056691;28;20024;-74
2023/06/04 00:22:42;;;;;;;10.85;5.80;;;;;;;;;;5056885;28;20327;-74
2023/06/04 00:25:11;;;;;;;15.43;6.53;;;;;;;;;;5043043;28;20036;-73
2023/06/04 00:27:36;;;;;;;17.48;6.28;;;;;;;;;;5057314;28;20028;-73
2023/06/04 00:30:02;;;;;;;8.60;4.68;;;;;;;13.73;nan;100783.91;5046450;28;20029;-74
2023/06/04 00:32:28;;;;;;;9.93;3.95;;;;;;;;;;5057024;28;20518;-74
2023/06/04 00:34:57;;;;;;;10.20;4.47;;;;;;;;;;5055476;28;20102;-73
2023/06/04 00:37:23;;;;;;;7.93;4.10;;;;;;;;;;5041557;28;20033;-73
2023/06/04 00:39:48;;;;;;;9.10;3.85;;;;;;;;;;5056837;28;20047;-73
2023/06/04 00:42:14;;;;;;;7.30;3.90;;;;;;;;;;5061991;28;20021;-72
2023/06/04 00:44:44;;;;;;;10.30;3.75;;;;;;;;;;5061508;28;20090;-72
2023/06/04 00:47:19;;;;;;;10.02;4.13;;;;;;;;;;5059242;28;20390;-73
2023/06/04 00:49:45;;;;;;;6.07;3.88;;;;;;;;;;5060887;28;20033;-73
2023/06/04 00:52:10;;;;;;;9.90;3.75;;;;;;;;;;5062833;28;20425;-78
2023/06/04 00:54:37;;;;;;;7.07;3.28;;;;;;;;;;5062485;28;20067;-79
2023/06/04 00:57:02;;;;;;;8.70;3.72;;;;;;;;;;5060398;28;20525;-79
2023/06/04 00:59:29;;;;;;;5.47;3.28;;;;;;;;;;5064720;28;20012;-79
2023/06/04 01:02:01;;;;;;;7.95;3.90;;;;;;;;;;5061865;28;20033;-79
2023/06/04 01:04:36;;;;;;;6.78;3.50;;;;;;;;;;5063371;28;20028;-79
2023/06/04 01:07:03;;;;;;;10.20;3.75;;;;;;;;;;5046641;28;20033;-79
2023/06/04 01:09:28;;;;;;;10.68;3.78;;;;;;;;;;5054026;28;20489;-79
2023/06/04 01:11:54;;;;;;;7.70;3.45;;;;;;;;;;5060564;28;20107;-80
2023/06/04 01:14:19;;;;;;;10.43;3.95;;;;;;;;;;5062834;28;20032;-78
2023/06/04 01:16:51;;;;;;;7.30;3.22;;;;;;;;;;5062674;28;20035;-79
2023/06/04 01:19:25;;;;;;;7.13;3.65;;;;;;;;;;5061122;28;20044;-78
2023/06/04 01:21:53;;;;;;;10.73;3.70;;;;;;;;;;5065776;28;20037;-78
2023/06/04 01:24:21;;;;;;;10.15;3.63;;;;;;;;;;5063974;28;20047;-78
2023/06/04 01:26:48;;;;;;;8.98;4.30;;;;;;;;;;5062429;28;20036;-78
2023/06/04 01:29:13;;;;;;;10.90;3.38;;;;;;;;;;5065412;28;20526;-78
2023/06/04 01:31:40;;;;;;;9.02;3.78;;;;;;;;;;5062420;28;20116;-78
2023/06/04 01:34:07;;;;;;;6.60;3.90;;;;;;;;;;5052258;28;20028;-78
2023/06/04 01:36:32;;;;;;;7.13;3.80;;;;;;;;;;5046600;28;20033;-78
2023/06/04 01:39:00;;;;;;;5.90;3.67;;;;;;;;;;5063800;28;20427;-78
2023/06/04 01:41:26;;;;;;;8.82;4.32;;;;;;;;;;5052220;28;20032;-79
2023/06/04 01:43:51;;;;;;;9.20;4.38;;;;;;;;;;5057131;28;20112;-78
2023/06/04 01:46:16;;;;;;;10.05;4.20;;;;;;;;;;5062932;28;20748;-78
2023/06/04 01:48:42;;;;;;;9.07;4.63;;;;;;;12.96;nan;100737.38;5044568;28;20025;-78
2023/06/04 01:51:07;;;;;;;7.75;3.80;;;;;;;13.05;nan;100751.06;5063548;28;20052;-79
2023/06/04 01:53:32;;;;;;;8.80;4.07;;;;;;;13.07;nan;100742.88;5060974;28;20027;-78
2023/06/04 01:55:58;;;;;;;10.30;4.10;;;;;;;13.30;nan;100785.19;5062746;28;20021;-79
2023/06/04 01:58:26;;;;;;;9.80;4.00;;;;;;;13.16;nan;100766.06;5044524;28;20044;-80
2023/06/04 02:00:52;;;;;;;6.20;3.70;;;;;;;13.24;nan;100799.31;5061859;28;20052;-79
2023/06/04 02:03:18;;;;;;;8.98;4.03;;;;;;;12.69;nan;100715.09;5064614;28;20049;-79
2023/06/04 02:05:46;;;;;;;8.32;3.53;;;;;;;12.87;nan;100753.81;5045540;28;20028;-78
2023/06/04 02:08:12;;;;;;;8.35;3.90;;;;;;;12.74;nan;100749.59;5063148;28;20029;-79
2023/06/04 02:10:37;;;;;;;7.30;4.35;;;;;;;12.43;nan;100732.25;5046946;28;20053;-78
2023/06/04 02:13:03;;;;;;;8.13;4.78;;;;;;;12.94;nan;100802.88;5063372;28;20028;-77
2023/06/04 02:15:30;;;;;;;6.82;3.97;;;;;;;12.75;nan;100780.25;5063275;28;20035;-78
2023/06/04 02:17:58;;;;;;;9.18;4.55;;;;;;;12.65;nan;100780.81;5061111;28;20028;-80
2023/06/04 02:20:27;;;;;;;9.40;4.07;;;;;;;12.78;nan;100798.28;5062953;28;20016;-78
2023/06/04 02:22:54;;;;;;;10.50;4.82;;;;;;;12.76;nan;100801.19;5060926;28;20035;-79
2023/06/04 02:25:20;;;;;;;7.63;3.83;;;;;;;12.57;nan;100783.81;5045722;28;20044;-79
2023/06/04 02:27:45;;;;;;;8.38;3.95;;;;;;;12.45;nan;100778.53;5062664;28;20028;-77
2023/06/04 02:30:11;;;;;;;8.80;3.70;;;;;;;11.98;nan;100703.72;5061886;28;20021;-79
2023/06/04 02:32:36;;;;;;;9.20;4.20;;;;;;;12.58;nan;100798.63;5063098;28;20047;-79
2023/06/04 02:35:03;;;;;;;7.72;4.05;;;;;;;12.18;nan;100732.44;5047162;28;20115;-80
2023/06/04 02:37:29;;;;;;;8.98;4.53;;;;;;;12.29;nan;100761.50;5062041;28;20474;-79
2023/06/04 02:39:55;;;;;;;10.48;4.40;;;;;;;12.50;nan;100797.13;5061712;28;20124;-79
2023/06/04 02:42:20;;;;;;;7.80;4.38;;;;;;;11.73;nan;100701.19;5044345;28;20132;-79
2023/06/04 02:44:45;;;;;;;10.80;4.70;;;;;;;12.11;nan;100749.19;5062890;28;20021;-79
2023/06/04 02:47:11;;;;;;;7.05;3.75;;;;;;;12.35;nan;100788.81;5045548;28;20486;-79
2023/06/04 02:49:36;;;;;;;10.48;4.30;;;;;;;12.01;nan;100738.34;5046266;28;20672;-79
2023/06/04 02:52:02;;;;;;;13.23;4.38;;;;;;;12.28;nan;100786.31;5042440;28;20021;-79
2023/06/04 02:54:27;;;;;;;7.28;4.15;;;;;;;12.35;nan;100807.31;5059603;28;20510;-78
2023/06/04 02:56:53;;;;;;;12.55;4.30;;;;;;;12.33;nan;100804.06;5058432;28;20052;-78
2023/06/04 02:59:19;;;;;;;11.20;4.93;;;;;;;12.19;nan;100778.94;5059529;28;20059;-78
2023/06/04 03:01:44;;;;;;;11.80;4.78;;;;;;;12.11;nan;100764.19;5061888;28;20033;-78
2023/06/04 03:04:14;;;;;;;9.95;4.68;;;;;;;12.35;nan;100809.94;5061478;28;20438;-78
2023/06/04 03:06:40;;;;;;;9.85;4.38;;;;;;;12.16;nan;100782.81;5059481;28;20580;-79
2023/06/04 03:09:06;;;;;;;10.82;4.68;;;;;;;12.23;nan;100788.78;5058051;28;20399;-78
2023/06/04 03:11:32;;;;;;;8.43;4.50;;;;;;;12.22;nan;100786.38;5060226;28;20031;-78
2023/06/04 03:13:57;;;;;;;8.00;4.32;;;;;;;12.29;nan;100816.16;5062073;28;20499;-78
2023/06/04 03:16:23;;;;;;;8.90;4.40;;;;;;;12.24;nan;100794.91;5058591;28;20021;-78
2023/06/04 03:18:48;;;;;;;7.05;4.30;;;;;;;12.24;nan;100800.97;5064357;28;20047;-78
2023/06/04 03:21:14;;;;;;;9.45;4.20;;;;;;;12.21;nan;100804.06;5059541;28;20044;-78
2023/06/04 03:23:40;;;;;;;9.23;3.88;;;;;;;12.25;nan;100821.06;5059292;28;20111;-78
2023/06/04 03:26:06;;;;;;;14.35;5.03;;;;;;;11.84;nan;100767.19;5062131;28;20020;-79
2023/06/04 03:28:33;;;;;;;10.52;4.60;;;;;;;12.04;nan;100811.84;5059618;28;20020;-78
2023/06/04 03:30:59;;;;;;;8.15;4.10;;;;;;;12.18;nan;100820.34;5046091;28;20044;-78
2023/06/04 03:33:24;;;;;;;9.73;4.10;;;;;;;12.01;nan;100795.63;5061187;28;20017;-80
2023/06/04 03:35:50;;;;;;;6.93;4.13;;;;;;;11.92;nan;100779.28;5043783;28;20044;-80
2023/06/04 03:38:16;;;;;;;9.05;4.28;;;;;;;11.78;nan;100767.28;5059705;28;20421;-78
2023/06/04 03:40:42;;;;;;;8.48;4.15;;;;;;;11.88;nan;100775.50;5061015;28;20404;-77
2023/06/04 03:43:07;;;;;;;9.70;4.18;;;;;;;11.63;nan;100750.00;5060898;28;20374;-78
2023/06/04 03:45:33;;;;;;;6.80;4.30;;;;;;;11.86;nan;100765.13;5058260;28;20025;-73
2023/06/04 03:47:58;;;;;;;10.40;4.30;;;;;;;12.12;nan;100806.22;5055892;28;20436;-74
2023/06/04 03:50:24;;;;;;;12.40;4.53;;;;;;;12.19;nan;100805.34;5055886;28;20083;-76
2023/06/04 03:52:50;;;;;;;9.60;4.10;;;;;;;;;;5056374;28;20589;-76
2023/06/04 03:55:15;;;;;;;9.52;4.80;;;;;;;;;;5058976;28;20060;-75
2023/06/04 03:57:40;;;;;;;8.02;4.07;;;;;;;;;;5044566;28;20766;-74
2023/06/04 04:00:06;;;;;;;11.43;4.38;;;;;;;;;;5055775;28;20024;-76
2023/06/04 04:02:32;;;;;;;8.65;4.20;;;;;;;;;;5057186;28;20036;-76
2023/06/04 04:04:57;;;;;;;9.10;3.87;;;;;;;;;;5043199;28;20042;-78
2023/06/04 04:07:23;;;;;;;10.10;4.10;;;;;;;;;;5047421;28;20108;-78
2023/06/04 04:09:48;;;;;;;9.35;4.18;;;;;;;;;;5054863;28;20483;-78
2023/06/04 04:12:14;;;;;;;7.67;4.53;;;;;;;;;;5043885;28;20063;-76
2023/06/04 04:14:39;;;;;;;9.60;4.63;;;;;;;;;;5056108;28;20768;-78
2023/06/04 04:17:05;;;;;;;9.13;4.60;;;;;;;12.90;nan;100851.94;5059687;28;20032;-80
2023/06/04 04:19:30;;;;;;;8.23;4.70;;;;;;;;;;5042807;28;20025;-79
2023/06/04 04:21:56;;;;;;;16.15;4.60;;;;;;;;;;5042527;28;20048;-79
2023/06/04 04:24:25;;;;;;;11.82;4.13;;;;;;;;;;5042065;28;20108;-79
2023/06/04 04:26:53;;;;;;;10.95;4.15;;;;;;;;;;5059263;28;20036;-79
2023/06/04 04:29:24;;;;;;;8.43;4.85;;;;;;;13.43;nan;100826.44;5037416;28;20039;-76
2023/06/04 04:31:51;;;;;;;9.85;4.50;;;;;;;13.09;nan;100773.31;5055525;28;20552;-78
2023/06/04 04:34:16;;;;;;;10.90;4.30;;;;;;;;;;5056117;28;20028;-78
2023/06/04 04:36:42;;;;;;;12.75;4.85;;;;;;;;;;5055720;28;20604;-78
2023/06/04 04:39:07;;;;;;;13.35;5.13;;;;;;;;;;5040332;28;20390;-79
2023/06/04 04:41:33;;;;;;;12.15;5.47;;;;;;;;;;5059562;28;20071;-78
2023/06/04 04:44:05;;;;;;;14.47;5.47;;;;;;;;;;5039592;28;20416;-78
2023/06/04 04:46:30;;;;;;;12.93;5.20;;;;;;;;;;5039496;28;20075;-78
2023/06/04 04:48:55;;;;;;;12.07;5.78;;;;;;;;;;5056146;28;20029;-78
2023/06/04 04:51:21;;;;;;;11.97;4.93;;;;;;;14.44;nan;100847.13;5057819;28;20020;-78
2023/06/04 04:53:47;;;;;;;14.93;5.07;;;;;;;14.42;nan;100823.53;5044245;28;20074;-73
2023/06/04 04:56:12;;;;;;;10.50;5.40;;;;;;;15.03;nan;100907.75;5052918;28;20049;-74
2023/06/04 04:58:38;;;;;;;18.05;5.28;;;;;;;14.71;nan;100843.88;5055768;28;20045;-75
2023/06/04 05:01:03;;;;;;;13.48;5.13;;;;;;;14.86;nan;100865.31;5057982;28;20086;-75
2023/06/04 05:03:29;;;;;;;8.23;4.72;;;;;;;14.90;nan;100853.19;5058515;28;20078;-73
2023/06/04 05:05:54;;;;;;;11.48;4.80;;;;;;;15.10;nan;100865.94;5040594;28;22098;-75
2023/06/04 05:08:20;;;;;;;12.98;4.88;;;;;;;15.13;nan;100862.78;5040350;28;21178;-72
2023/06/04 05:10:45;;;;;;;10.85;5.25;;;;;;;15.30;nan;100865.44;5056861;28;20855;-75
2023/06/04 05:13:11;;;;;;;9.82;4.50;;;;;;;15.47;nan;100876.81;5056242;28;20478;-75
2023/06/04 05:15:39;;;;;;;8.07;4.90;;;;;;;15.48;nan;100865.13;5056423;28;20095;-80
2023/06/04 05:18:05;;;;;;;10.57;4.95;;;;;;;15.59;nan;100859.97;5055951;28;20028;-79
2023/06/04 05:20:30;;;;;;;9.20;4.82;;;;;;;15.77;nan;100886.22;5056877;28;20497;-80
2023/06/04 05:22:56;;;;;;;9.55;4.78;;;;;;;15.82;nan;100883.63;5055619;28;20197;-79
2023/06/04 05:25:22;;;;;;;5.70;4.10;;;;;;;16.23;nan;100931.91;5054928;28;20025;-79
2023/06/04 05:27:49;;;;;;;8.70;4.30;;;;;;;15.99;nan;100875.59;5036794;28;20032;-79
2023/06/04 05:30:15;;;;;;;7.97;4.18;;;;;;;16.13;nan;100882.13;5059734;28;20029;-75
2023/06/04 05:32:40;;;;;;;7.82;4.20;;;;;;;16.22;nan;100874.50;5060816;28;20021;-74
2023/06/04 05:35:07;;;;;;;8.25;4.88;;;;;;;16.42;nan;100889.03;5049118;28;20025;-76
2023/06/04 05:37:34;;;;;;;7.82;4.75;;;;;;;;;;5046219;28;20111;-78
2023/06/04 05:39:59;;;;;;;10.23;5.00;;;;;;;;;;5056587;28;20502;-79
2023/06/04 05:42:25;;;;;;;7.25;4.30;;;;;;;;;;5057110;28;20028;-71
2023/06/04 05:44:50;;;;;;;8.35;4.20;;;;;;;;;;5058175;28;20048;-72
2023/06/04 05:47:16;;;;;;;10.37;4.23;;;;;;;;;;5058560;28;20585;-79
2023/06/04 05:49:42;;;;;;;7.05;4.65;;;;;;;;;;5059520;28;20031;-79
2023/06/04 05:52:07;;;;;;;9.93;5.03;;;;;;;;;;5042732;28;20025;-78
2023/06/04 05:54:32;;;;;;;7.37;4.63;;;;;;;;;;5041551;28;20032;-78
2023/06/04 05:56:58;;;;;;;8.82;5.00;;;;;;;;;;5061115;28;20292;-78
2023/06/04 05:59:23;;;;;;;8.70;4.85;;;;;;;;;;5058430;28;20835;-77
2023/06/04 06:01:49;;;;;;;10.70;5.10;;;;;;;;;;5040091;28;20036;-78
2023/06/04 06:04:15;;;;;;;6.93;4.60;;;;;;;;;;5059358;28;20021;-78
2023/06/04 06:06:43;;;;;;;10.40;4.90;;;;;;;;;;5046872;28;20113;-79
2023/06/04 06:09:09;;;;;;;8.13;4.57;;;;;;;;;;5057452;28;20493;-79
2023/06/04 06:11:34;;;;;;;9.57;4.50;;;;;;;;;;5048525;28;20024;-79
2023/06/04 06:13:59;;;;;;;11.07;4.40;;;;;;;;;;5058084;28;20130;-78
2023/06/04 06:16:24;;;;;;;6.63;4.27;;;;;;;;;;5057730;28;20052;-78
2023/06/04 06:18:50;;;;;;;6.60;4.77;;;;;;;;;;5048188;28;20767;-80
2023/06/04 06:21:15;;;;;;;8.05;4.68;;;;;;;;;;5058822;28;20332;-78
2023/06/04 06:23:41;;;;;;;7.78;4.65;;;;;;;;;;5059601;28;20366;-79
2023/06/04 06:26:08;;;;;;;11.68;5.40;;;;;;;17.78;nan;100862.81;5046492;28;20068;-78
2023/06/04 06:28:33;;;;;;;7.55;4.90;;;;;;;;;;5060230;28;20734;-73
2023/06/04 06:30:58;;;;;;;7.90;4.20;;;;;;;;;;5060219;28;20087;-74
2023/06/04 06:33:24;;;;;;;6.20;4.60;;;;;;;;;;5057169;28;20036;-74
2023/06/04 06:35:49;;;;;;;10.63;4.80;;;;;;;;;;5046159;28;20067;-74
2023/06/04 06:38:14;;;;;;;7.43;4.50;;;;;;;;;;5059188;28;20292;-74
2023/06/04 06:40:40;;;;;;;9.33;4.40;;;;;;;;;;5055638;28;20028;-73
2023/06/04 06:43:05;;;;;;;9.80;4.63;;;;;;;;;;5043219;28;20352;-74
2023/06/04 06:45:31;;;;;;;5.97;4.80;;;;;;;18.36;nan;100945.34;5056668;28;20038;-73
2023/06/04 06:47:56;;;;;;;8.18;4.15;;;;;;;18.39;nan;100944.81;5057040;28;20422;-73
2023/06/04 06:50:21;;;;;;;7.05;4.35;;;;;;;18.39;nan;100939.47;5059621;28;20770;-73
2023/06/04 06:52:47;;;;;;;8.27;4.53;;;;;;;18.50;nan;100941.09;5054691;28;20643;-72
2023/06/04 06:55:12;;;;;;;8.02;4.82;;;;;;;18.65;nan;100949.16;5057164;28;20025;-73
2023/06/04 06:57:37;;;;;;;7.53;4.55;;;;;;;18.69;nan;100954.72;5057491;28;20508;-73
2023/06/04 07:00:04;;;;;;;8.13;4.05;;;;;;;18.70;nan;100951.03;5056384;28;20104;-77
2023/06/04 07:02:29;;;;;;;6.63;3.90;;;;;;;18.73;nan;100947.00;5045616;28;20084;-75
2023/06/04 07:04:55;;;;;;;6.22;4.50;;;;;;;18.83;nan;100958.50;5056655;28;20527;-74
2023/06/04 07:07:21;;;;;;;10.88;4.68;;;;;;;18.81;nan;100952.63;5056572;28;20044;-75
2023/06/04 07:09:46;;;;;;;8.07;3.83;;;;;;;18.91;nan;100951.84;5056253;28;20025;-76
2023/06/04 07:12:11;;;;;;;5.97;4.07;;;;;;;19.01;nan;100956.38;5042700;28;20056;-76
2023/06/04 07:14:37;;;;;;;7.75;4.10;;;;;;;19.08;nan;100962.25;5058467;28;20475;-76
2023/06/04 07:17:02;;;;;;;11.15;4.35;;;;;;;18.98;nan;100935.56;5055780;28;20052;-75
2023/06/04 07:19:27;;;;;;;9.73;4.53;;;;;;;19.12;nan;100945.41;5042729;28;20055;-75
2023/06/04 07:21:54;;;;;;;6.47;4.25;;;;;;;19.25;nan;100948.59;5058845;28;20031;-73
2023/06/04 07:24:19;;;;;;;7.10;4.18;;;;;;;19.32;nan;100959.81;5055240;28;20042;-74
2023/06/04 07:26:45;;;;;;;9.45;4.45;;;;;;;19.36;nan;100958.22;5057837;28;20017;-76
2023/06/04 07:29:10;;;;;;;6.30;4.05;;;;;;;19.37;nan;100956.34;5056344;28;20060;-78
2023/06/04 07:31:36;;;;;;;7.15;4.18;;;;;;;19.41;nan;100955.53;5036379;28;20023;-76
2023/06/04 07:34:01;;;;;;;6.90;4.15;;;;;;;19.44;nan;100960.34;5060550;28;20028;-75
2023/06/04 07:36:26;;;;;;;6.15;4.07;;;;;;;19.50;nan;100958.47;5062077;28;20017;-77
2023/06/04 07:38:52;;;;;;;6.50;3.78;;;;;;;19.49;nan;100948.81;5058499;28;20024;-73
2023/06/04 07:41:17;;;;;;;7.75;4.13;;;;;;;19.51;nan;100952.84;5054980;28;20499;-73
2023/06/04 07:43:43;;;;;;;5.88;3.70;;;;;;;19.62;nan;100972.31;5058616;28;20629;-73
2023/06/04 07:46:09;;;;;;;10.35;4.72;;;;;;;19.66;nan;100973.38;5055588;28;20071;-74
2023/06/04 07:48:35;;;;;;;5.85;4.07;;;;;;;19.56;nan;100952.03;5041611;28;20024;-74
2023/06/04 07:51:01;;;;;;;4.43;3.70;;;;;;;19.74;nan;100969.38;5055300;28;20087;-73
2023/06/04 07:53:27;;;;;;;7.13;3.88;;;;;;;19.73;nan;100965.91;5055683;28;20028;-74
2023/06/04 07:55:53;;;;;;;9.20;4.10;;;;;;;19.83;nan;100972.31;5041497;28;20031;-74
2023/06/04 07:58:19;;;;;;;5.63;4.40;;;;;;;19.86;nan;100969.06;5040622;28;20091;-74
2023/06/04 08:00:45;;;;;;;6.80;4.03;;;;;;;19.83;nan;100958.94;5040441;28;20056;-74
2023/06/04 08:03:10;;;;;;;6.88;3.92;;;;;;;19.80;nan;100954.13;5055379;28;20036;-73
2023/06/04 08:05:36;;;;;;;7.13;4.10;;;;;;;19.96;nan;100975.16;5055683;28;20024;-72
2023/06/04 08:08:01;;;;;;;5.72;4.00;;;;;;;20.01;nan;100966.34;5038923;28;20040;-72
2023/06/04 08:10:27;;;;;;;5.30;4.07;;;;;;;20.09;nan;100970.34;5058406;28;20046;-71
2023/06/04 08:12:52;;;;;;;6.88;4.35;;;;;;;20.07;nan;100978.63;5042374;28;20028;-74
2023/06/04 08:15:18;;;;;;;7.80;3.65;;;;;;;20.00;nan;100956.72;5037183;28;20105;-73
2023/06/04 08:17:43;;;;;;;6.40;3.80;;;;;;;20.04;nan;100962.31;5057605;28;20389;-70
2023/06/04 08:20:09;;;;;;;8.18;3.80;;;;;;;20.21;nan;100975.31;5057242;28;20066;-68
2023/06/04 08:22:35;;;;;;;6.65;3.83;;;;;;;20.20;nan;100971.84;5057443;28;20039;-67
2023/06/04 08:25:00;;;;;;;7.07;3.63;;;;;;;20.28;nan;100978.50;5043289;28;20036;-72
2023/06/04 08:27:26;;;;;;;7.80;3.22;;;;;;;20.25;nan;100963.00;5059739;28;20089;-71
2023/06/04 08:29:52;;;;;;;8.05;3.42;;;;;;;20.25;nan;100945.09;5058954;28;20028;-71
2023/06/04 08:32:18;;;;;;;7.70;3.80;;;;;;;20.40;nan;100961.06;5057043;28;20466;-71
2023/06/04 08:34:43;;;;;;;7.22;3.70;;;;;;;20.44;nan;100958.63;5056760;28;20077;-73
2023/06/04 08:37:08;;;;;;;6.65;3.72;;;;;;;20.53;nan;100974.91;5059531;28;20025;-73
2023/06/04 08:39:34;;;;;;;5.68;3.50;;;;;;;20.42;nan;100968.78;5055933;28;20541;-73
2023/06/04 08:42:03;;;;;;;7.90;3.35;;;;;;;20.42;nan;100970.66;5052232;28;20032;-73
2023/06/04 08:44:30;;;;;;;7.25;3.67;;;;;;;20.39;nan;100977.38;5055650;28;20036;-73
2023/06/04 08:47:07;;;;;;;5.32;3.13;;;;;;;20.34;nan;100958.69;5057079;28;20029;-73
2023/06/04 08:49:36;;;;;;;5.25;3.53;;;;;;;20.45;nan;100972.78;5043257;28;20613;-73
2023/06/04 08:52:01;;;;;;;5.05;3.13;;;;;;;20.50;nan;100965.53;5054824;28;20056;-73
2023/06/04 08:54:27;;;;;;;5.90;3.25;;;;;;;20.61;nan;100974.31;5057717;28;20056;-73
2023/06/04 08:56:56;;;;;;;8.70;2.90;;;;;;;20.53;nan;100958.84;5055268;28;20110;-75
2023/06/04 08:59:22;;;;;;;10.43;3.28;;;;;;;20.42;nan;100930.53;5058220;28;20375;-76
2023/06/04 09:01:48;;;;;;;4.18;2.58;;;;;;;20.66;nan;100960.13;5055526;28;20032;-74
2023/06/04 09:04:14;;;;;;;6.40;2.80;;;;;;;20.74;nan;100951.50;5047031;28;20441;-73
2023/06/04 09:06:42;;;;;;;3.08;2.75;;;;;;;20.87;nan;100956.19;5058732;28;20642;-73
2023/06/04 09:09:12;;;;;;;5.28;2.80;;;;;;;20.92;nan;100963.41;5062518;28;20057;-74
2023/06/04 09:11:59;;;;;;;3.58;2.75;;;;;;;20.95;nan;100955.63;5059546;28;20033;-73
2023/06/04 09:14:25;;;;;;;6.30;2.92;;;;;;;21.06;nan;100964.34;5044179;28;20071;-71
2023/06/04 09:16:53;;;;;;;5.85;3.03;;;;;;;21.21;nan;100974.13;5060462;28;20024;-71
2023/06/04 09:19:19;;;;;;;4.32;2.80;;;;;;;21.19;nan;100970.91;5058445;28;20063;-71
2023/06/04 09:21:49;;;;;;;7.32;2.92;;;;;;;21.17;nan;100973.09;5061089;28;20095;-71
2023/06/04 09:24:14;;;;;;;5.45;2.85;;;;;;;20.94;nan;100932.59;5059127;28;20402;-72
2023/06/04 09:26:39;;;;;;;7.80;2.53;;;;;;;21.15;nan;100978.72;5056294;28;20103;-72
2023/06/04 09:29:05;;;;;;;5.00;2.58;;;;;;;21.13;nan;100970.19;5058030;28;20025;-72
2023/06/04 09:31:36;;;;;;;6.28;2.60;;;;;;;21.14;nan;100960.25;5059934;28;20686;-72
2023/06/04 09:34:02;;;;;;;6.72;2.80;;;;;;;21.18;nan;100974.69;5060475;28;20736;-74
2023/06/04 09:36:31;;;;;;;3.83;2.72;;;;;;;21.18;nan;100972.00;5058086;28;20027;-72
2023/06/04 09:38:56;;;;;;;3.90;2.42;;;;;;;21.09;nan;100968.34;5058930;28;20082;-73
2023/06/04 09:41:22;;;;;;;3.95;2.60;;;;;;;21.12;nan;100971.28;5040290;28;20029;-72
2023/06/04 09:43:47;;;;;;;7.15;2.50;;;;;;;21.23;nan;100975.44;5058880;28;20028;-73
2023/06/04 09:46:14;;;;;;;5.35;2.55;;;;;;;21.37;nan;100972.91;5057023;28;20016;-74
2023/06/04 09:48:40;;;;;;;3.65;2.40;;;;;;;21.48;nan;100980.84;5059351;28;20031;-74
2023/06/04 09:51:07;;;;;;;4.88;2.60;;;;;;;21.52;nan;100974.66;5059703;28;20078;-74
2023/06/04 09:53:32;;;;;;;2.53;2.33;;;;;;;21.36;nan;100949.88;5059338;28;20029;-73
2023/06/04 09:55:59;;;;;;;7.63;2.75;;;;;;;21.56;nan;100983.72;5056938;28;20021;-73
2023/06/04 09:58:29;;;;;;;5.72;2.80;;;;;;;21.60;nan;100971.38;5055766;28;20045;-73
2023/06/04 10:00:57;;;;;;;4.32;2.05;;;;;;;21.70;nan;100967.78;5042824;28;20030;-74
2023/06/04 10:03:25;;;;;;;3.92;2.20;;;;;;;21.79;nan;100973.31;5057728;28;20728;-73
2023/06/04 10:05:53;;;;;;;4.00;2.30;;;;;;;21.69;nan;100952.75;5042541;28;20039;-72
2023/06/04 10:08:22;;;;;;;3.83;2.27;;;;;;;21.95;nan;100980.06;5059822;28;20040;-72
2023/06/04 10:10:52;;;;;;;5.73;2.53;;;;;;;22.02;nan;100977.81;5047336;28;20283;-72
2023/06/04 10:13:18;;;;;;;5.72;2.03;;;;;;;22.01;nan;100978.13;5056623;28;20540;-72
2023/06/04 10:15:45;;;;;;;4.75;2.13;;;;;;;21.91;nan;100967.50;5047923;28;20495;-73
2023/06/04 10:18:13;;;;;;;2.70;2.03;;;;;;;21.95;nan;100976.59;5054067;28;20490;-73
2023/06/04 10:20:40;;;;;;;3.08;2.30;;;;;;;22.04;nan;100964.13;5057982;28;20037;-73
2023/06/04 10:23:07;;;;;;;8.52;2.30;;;;;;;22.11;nan;100969.16;5056784;28;20035;-73
2023/06/04 10:25:35;;;;;;;4.55;2.50;;;;;;;22.21;nan;100972.53;5058101;28;20077;-73
2023/06/04 10:28:01;;;;;;;3.17;2.13;;;;;;;22.20;nan;100952.16;5059489;28;20032;-73
2023/06/04 10:30:27;;;;;;;4.28;2.10;;;;;;;22.32;nan;100975.88;5058337;28;20032;-73
2023/06/04 10:32:53;;;;;;;3.85;2.40;;;;;;;22.31;nan;100974.25;5054474;28;20395;-73
2023/06/04 10:35:29;;;;;;;3.20;2.25;;;;;;;22.24;nan;100979.19;5042098;28;20463;-73
2023/06/04 10:38:05;;;;;;;2.92;2.03;;;;;;;22.15;nan;100954.06;5062341;28;20040;-73
2023/06/04 10:40:33;;;;;;;5.05;2.15;;;;;;;22.17;nan;100952.72;5054171;28;20016;-73
2023/06/04 10:43:08;;;;;;;5.45;2.67;;;;;;;22.18;nan;100967.72;5056980;28;20021;-73
2023/06/04 10:45:34;;;;;;;4.88;2.40;;;;;;;22.25;nan;100962.03;5057186;28;20017;-73
2023/06/04 10:48:00;;;;;;;5.07;2.63;;;;;;;22.26;nan;100958.25;5057907;28;20041;-73
2023/06/04 10:50:26;;;;;;;3.92;2.58;;;;;;;22.21;nan;100948.38;5056102;28;20024;-72
2023/06/04 10:52:53;;;;;;;6.97;2.47;;;;;;;22.25;nan;100948.59;5055491;28;20394;-73
2023/06/04 10:55:18;;;;;;;5.70;2.40;;;;;;;22.36;nan;100951.94;5057780;28;20032;-73
2023/06/04 10:57:53;;;;;;;3.65;2.58;;;;;;;22.52;nan;100961.34;5057371;28;20053;-73
2023/06/04 11:00:19;;;;;;;3.75;2.10;;;;;;;22.61;nan;100953.44;5056062;28;20032;-73
2023/06/04 11:02:55;;;;;;;3.03;2.35;;;;;;;22.64;nan;100956.34;5057388;28;20029;-74
2023/06/04 11:05:21;;;;;;;3.50;2.35;;;;;;;22.61;nan;100948.09;5058359;28;20020;-74
2023/06/04 11:07:48;;;;;;;4.65;2.20;;;;;;;22.72;nan;100953.00;5059531;28;20543;-75
2023/06/04 11:10:16;;;;;;;2.95;2.13;;;;;;;22.77;nan;100944.06;5059976;28;20040;-72
2023/06/04 11:12:52;;;;;;;5.15;2.30;;;;;;;22.96;nan;100953.94;5054822;28;20403;-72
2023/06/04 11:15:18;;;;;;;2.72;2.10;;;;;;;23.03;nan;100947.13;5054408;28;20025;-74
2023/06/04 11:17:58;;;;;;;4.03;2.33;;;;;;;23.05;nan;100934.22;5055204;28;20032;-74
2023/06/04 11:20:23;;;;;;;2.58;2.00;;;;;;;23.00;nan;100920.09;5045696;28;20163;-73
2023/06/04 11:22:54;;;;;;;4.22;2.35;;;;;;;23.22;nan;100943.59;5043832;28;20111;-75
2023/06/04 11:25:22;;;;;;;5.07;2.58;;;;;;;23.29;nan;100942.09;5055109;28;20028;-73
2023/06/04 11:27:47;;;;;;;3.13;2.10;;;;;;;23.34;nan;100942.03;5059391;28;20375;-74
2023/06/04 11:30:14;;;;;;;3.72;2.60;;;;;;;23.43;nan;100944.81;5039658;28;20025;-73
2023/06/04 11:32:39;;;;;;;4.10;2.00;;;;;;;23.38;nan;100931.47;5054923;28;20012;-73
2023/06/04 11:35:10;;;;;;;3.40;2.17;;;;;;;23.48;nan;100942.03;5055952;28;20036;-73
2023/06/04 11:37:36;;;;;;;3.63;2.13;;;;;;;23.50;nan;100931.78;5037336;28;20122;-75
2023/06/04 11:40:05;;;;;;;2.85;2.13;;;;;;;23.57;nan;100928.69;5056776;28;20036;-74
2023/06/04 11:42:30;;;;;;;3.33;2.10;;;;;;;23.65;nan;100929.88;5056509;28;20032;-74
2023/06/04 11:44:56;;;;;;;5.38;2.35;;;;;;;23.69;nan;100938.94;5055565;28;20040;-75
2023/06/04 11:47:23;;;;;;;3.13;2.25;;;;;;;23.71;nan;100931.38;5053373;28;20505;-74
2023/06/04 11:49:55;;;;;;;4.95;2.10;;;;;;;23.86;nan;100941.06;5057807;28;20115;-74
2023/06/04 11:52:20;;;;;;;2.80;2.10;;;;;;;23.88;nan;100933.47;5060626;28;20016;-73
2023/06/04 11:54:46;;;;;;;5.35;2.50;;;;;;;23.92;nan;100932.56;5054810;28;20028;-73
2023/06/04 11:57:12;;;;;;;4.70;1.90;;;;;;;23.94;nan;100922.31;5058031;28;20044;-74
2023/06/04 11:59:38;;;;;;;4.03;1.95;;;;;;;23.99;nan;100922.19;5058014;28;20021;-74
2023/06/04 12:02:03;;;;;;;3.25;2.22;;;;;;;24.02;nan;100920.00;5055160;28;20021;-74
2023/06/04 12:04:31;;;;;;;7.97;2.10;;;;;;;24.10;nan;100933.53;5060260;28;20127;-74
2023/06/04 12:06:58;;;;;;;2.33;2.00;;;;;;;24.12;nan;100933.22;5057286;28;20083;-74
2023/06/04 12:09:28;;;;;;;3.67;2.10;;;;;;;24.13;nan;100930.22;5057048;28;20071;-74
2023/06/04 12:12:01;;;;;;;3.92;2.05;;;;;;;24.16;nan;100913.47;5056480;28;20020;-74
2023/06/04 12:14:27;;;;;;;3.17;2.00;;;;;;;24.14;nan;100909.50;5056793;28;20032;-74
2023/06/04 12:17:16;;;;;;;2.53;1.88;;;;;;;24.23;nan;100923.84;5055139;28;20021;-74
2023/06/04 12:19:50;;;;;;;3.38;1.75;;;;;;;24.26;nan;100919.75;5055677;28;20048;-74
2023/06/04 12:22:15;;;;;;;3.47;1.80;;;;;;;24.24;nan;100914.66;5058001;28;20054;-75